createdAt,value
2023-04-28T00:00:19.588Z,10.50
2023-04-28T00:02:48.608Z,10.50
2023-04-28T00:05:16.390Z,10.50
2023-04-28T00:07:43.268Z,10.50
2023-04-28T00:10:10.525Z,10.50
2023-04-28T00:12:37.553Z,10.50
2023-04-28T00:15:04.769Z,10.60
2023-04-28T00:17:31.632Z,10.60
2023-04-28T00:19:58.886Z,10.60
2023-04-28T00:22:25.737Z,10.60
2023-04-28T00:24:52.511Z,10.60
2023-04-28T00:27:20.646Z,10.70
2023-04-28T00:29:47.604Z,10.70
2023-04-28T00:32:14.607Z,10.70
2023-04-28T00:34:41.507Z,10.70
2023-04-28T00:37:08.585Z,10.70
2023-04-28T00:39:35.434Z,10.80
2023-04-28T00:42:02.432Z,10.70
2023-04-28T00:44:29.243Z,10.70
2023-04-28T00:46:58.581Z,10.70
2023-04-28T00:49:26.232Z,10.70
2023-04-28T00:51:52.985Z,10.70
2023-04-28T00:54:20.439Z,10.70
2023-04-28T00:56:47.661Z,10.70
2023-04-28T00:59:14.405Z,10.70
2023-04-28T01:01:41.352Z,10.70
2023-04-28T01:04:08.530Z,10.70
2023-04-28T01:06:38.880Z,10.70
2023-04-28T01:09:07.421Z,10.70
2023-04-28T01:11:34.853Z,10.80
2023-04-28T01:14:10.482Z,10.80
2023-04-28T01:16:41.002Z,10.80
2023-04-28T01:19:10.130Z,10.80
2023-04-28T01:21:40.611Z,10.70
2023-04-28T01:24:17.520Z,10.70
2023-04-28T01:26:45.526Z,10.80
2023-04-28T01:29:12.728Z,10.80
2023-04-28T01:31:39.568Z,10.70
2023-04-28T01:34:06.530Z,10.70
2023-04-28T01:36:35.312Z,10.70
2023-04-28T01:39:04.561Z,10.70
2023-04-28T01:41:34.404Z,10.70
2023-04-28T01:44:01.411Z,10.70
2023-04-28T01:46:28.341Z,10.70
2023-04-28T01:48:55.192Z,10.70
2023-04-28T01:51:21.976Z,10.70
2023-04-28T01:53:49.002Z,10.70
2023-04-28T01:56:15.970Z,10.70
2023-04-28T01:58:43.353Z,10.70
2023-04-28T02:01:10.529Z,10.70
2023-04-28T02:03:37.649Z,10.70
2023-04-28T02:06:05.428Z,10.70
2023-04-28T02:08:32.194Z,10.70
2023-04-28T02:10:59.024Z,10.70
2023-04-28T02:13:25.737Z,10.60
2023-04-28T02:15:53.423Z,10.60
2023-04-28T02:18:21.400Z,10.60
2023-04-28T02:20:48.164Z,10.50
2023-04-28T02:23:15.156Z,10.40
2023-04-28T02:25:41.971Z,10.30
2023-04-28T02:28:13.044Z,10.10
2023-04-28T02:30:39.906Z,10.00
2023-04-28T02:33:06.660Z,9.90
2023-04-28T02:35:33.572Z,9.80
2023-04-28T02:38:00.392Z,9.70
2023-04-28T02:40:27.338Z,9.60
2023-04-28T02:42:54.314Z,9.60
2023-04-28T02:45:21.850Z,9.60
2023-04-28T02:47:48.671Z,9.60
2023-04-28T02:50:16.777Z,9.50
2023-04-28T02:52:48.833Z,9.50
2023-04-28T02:55:23.715Z,9.40
2023-04-28T02:57:51.460Z,9.40
2023-04-28T03:00:18.656Z,9.30
2023-04-28T03:02:48.364Z,9.30
2023-04-28T03:05:16.111Z,9.30
2023-04-28T03:07:42.965Z,9.30
2023-04-28T03:10:10.121Z,9.30
2023-04-28T03:12:37.121Z,9.20
2023-04-28T03:15:04.246Z,9.20
2023-04-28T03:17:31.551Z,9.20
2023-04-28T03:19:58.998Z,9.10
2023-04-28T03:22:26.023Z,9.10
2023-04-28T03:24:52.832Z,9.20
2023-04-28T03:27:20.075Z,9.10
2023-04-28T03:29:47.272Z,9.10
2023-04-28T03:32:15.259Z,9.10
2023-04-28T03:34:42.201Z,9.10
2023-04-28T03:37:09.086Z,9.00
2023-04-28T03:39:36.255Z,9.00
2023-04-28T03:42:03.907Z,9.00
2023-04-28T03:44:36.480Z,9.00
2023-04-28T03:47:03.757Z,9.00
2023-04-28T03:49:30.642Z,9.00
2023-04-28T03:51:57.952Z,9.00
2023-04-28T03:54:25.471Z,9.00
2023-04-28T03:56:52.260Z,8.90
2023-04-28T03:59:21.202Z,8.90
2023-04-28T04:01:49.379Z,8.90
2023-04-28T04:04:16.709Z,8.90
2023-04-28T04:06:44.493Z,8.90
2023-04-28T04:09:12.990Z,8.90
2023-04-28T04:11:40.854Z,8.90
2023-04-28T04:14:07.676Z,8.80
2023-04-28T04:16:36.338Z,8.80
2023-04-28T04:19:03.723Z,8.80
2023-04-28T04:21:44.191Z,8.80
2023-04-28T04:24:11.256Z,8.80
2023-04-28T04:26:38.343Z,8.90
2023-04-28T04:29:21.104Z,8.90
2023-04-28T04:31:49.585Z,8.90
2023-04-28T04:34:16.675Z,8.90
2023-04-28T04:36:44.193Z,8.90
2023-04-28T04:39:15.813Z,8.90
2023-04-28T04:41:42.739Z,9.00
2023-04-28T04:44:29.778Z,9.00
2023-04-28T04:46:57.513Z,9.00
2023-04-28T04:49:24.426Z,9.00
2023-04-28T04:51:52.019Z,9.00
2023-04-28T04:54:19.434Z,9.00
2023-04-28T04:56:46.890Z,9.10
2023-04-28T04:59:19.084Z,9.10
2023-04-28T05:01:54.742Z,9.10
2023-04-28T05:04:22.470Z,9.10
2023-04-28T05:06:50.055Z,9.20
2023-04-28T05:09:17.636Z,9.20
2023-04-28T05:11:45.764Z,9.10
2023-04-28T05:14:13.115Z,9.20
2023-04-28T05:16:42.365Z,9.30
2023-04-28T05:19:12.184Z,9.30
2023-04-28T05:21:38.930Z,9.30
2023-04-28T05:24:06.117Z,9.30
2023-04-28T05:26:33.019Z,9.30
2023-04-28T05:29:06.200Z,9.30
2023-04-28T05:31:33.232Z,9.40
2023-04-28T05:34:00.233Z,9.40
2023-04-28T05:36:28.065Z,9.40
2023-04-28T05:38:55.058Z,9.50
2023-04-28T05:41:22.708Z,9.50
2023-04-28T05:43:51.235Z,9.50
2023-04-28T05:46:30.211Z,9.50
2023-04-28T05:48:59.034Z,9.60
2023-04-28T05:51:28.323Z,9.70
2023-04-28T05:53:55.117Z,9.80
2023-04-28T05:56:24.979Z,9.80
2023-04-28T05:58:52.085Z,9.90
2023-04-28T06:01:19.506Z,9.90
2023-04-28T06:03:46.971Z,9.90
2023-04-28T06:06:14.591Z,9.90
2023-04-28T06:08:43.520Z,10.00
2023-04-28T06:11:10.340Z,9.90
2023-04-28T06:13:37.172Z,9.90
2023-04-28T06:16:04.344Z,9.90
2023-04-28T06:18:34.297Z,9.90
2023-04-28T06:21:02.708Z,9.90
2023-04-28T06:23:29.532Z,9.90
2023-04-28T06:25:56.643Z,10.00
2023-04-28T06:28:23.437Z,10.00
2023-04-28T06:30:53.428Z,10.00
2023-04-28T06:33:20.262Z,10.10
2023-04-28T06:35:47.278Z,10.00
2023-04-28T06:38:15.573Z,10.00
2023-04-28T06:40:42.371Z,10.10
2023-04-28T06:43:09.288Z,10.10
2023-04-28T06:45:41.788Z,10.10
2023-04-28T06:48:09.296Z,10.10
2023-04-28T06:50:38.693Z,10.20
2023-04-28T06:53:07.674Z,10.20
2023-04-28T06:55:35.296Z,10.20
2023-04-28T06:58:02.082Z,10.30
2023-04-28T07:00:28.941Z,10.30
2023-04-28T07:02:55.857Z,10.40
2023-04-28T07:05:23.179Z,10.40
2023-04-28T07:07:49.980Z,10.50
2023-04-28T07:10:16.892Z,10.50
2023-04-28T07:12:43.706Z,10.50
2023-04-28T07:15:11.153Z,10.40
2023-04-28T07:17:38.444Z,10.50
2023-04-28T07:20:09.037Z,10.50
2023-04-28T07:22:36.197Z,10.50
2023-04-28T07:25:03.086Z,10.40
2023-04-28T07:27:29.976Z,10.40
2023-04-28T07:29:56.786Z,10.40
2023-04-28T07:32:24.280Z,10.40
2023-04-28T07:34:51.119Z,10.30
2023-04-28T07:37:18.540Z,10.30
2023-04-28T07:39:45.420Z,10.30
2023-04-28T07:42:12.323Z,10.30
2023-04-28T07:44:39.266Z,10.30
2023-04-28T07:47:06.121Z,10.30
2023-04-28T07:49:33.133Z,10.30
2023-04-28T07:51:59.853Z,10.30
2023-04-28T07:54:26.651Z,10.40
2023-04-28T07:56:53.421Z,10.40
2023-04-28T07:59:20.888Z,10.40
2023-04-28T08:01:47.642Z,10.40
2023-04-28T08:04:15.017Z,10.50
2023-04-28T08:06:42.253Z,10.50
2023-04-28T08:09:09.198Z,10.50
2023-04-28T08:11:35.980Z,10.50
2023-04-28T08:14:03.415Z,10.50
2023-04-28T08:16:31.498Z,10.50
2023-04-28T08:19:00.301Z,10.50
2023-04-28T08:21:27.244Z,10.50
2023-04-28T08:23:54.358Z,10.70
2023-04-28T08:26:21.371Z,10.70
2023-04-28T08:28:48.155Z,10.80
2023-04-28T08:31:15.178Z,10.80
2023-04-28T08:33:45.490Z,10.90
2023-04-28T08:36:14.901Z,11.10
2023-04-28T08:38:43.979Z,11.10
2023-04-28T08:41:19.134Z,11.30
2023-04-28T08:43:45.907Z,11.40
2023-04-28T08:46:14.901Z,11.70
2023-04-28T08:48:45.025Z,12.10
2023-04-28T08:51:17.076Z,12.50
2023-04-28T08:54:18.422Z,12.70
2023-04-28T08:56:36.840Z,12.80
2023-04-28T08:59:05.062Z,12.60
2023-04-28T09:01:32.961Z,12.40
2023-04-28T09:04:04.113Z,12.30
2023-04-28T09:06:38.934Z,12.20
2023-04-28T09:09:18.620Z,12.10
2023-04-28T09:12:11.620Z,12.20
2023-04-28T09:14:39.585Z,12.30
2023-04-28T09:17:16.339Z,12.40
2023-04-28T09:19:43.546Z,12.40
2023-04-28T09:22:18.224Z,12.60
2023-04-28T09:24:53.464Z,12.70
2023-04-28T09:27:29.695Z,12.60
2023-04-28T09:29:56.761Z,12.60
2023-04-28T09:32:24.452Z,12.50
2023-04-28T09:34:54.083Z,12.40
2023-04-28T09:37:31.927Z,12.30
2023-04-28T09:40:08.631Z,12.20
2023-04-28T09:42:37.517Z,12.30
2023-04-28T09:45:12.906Z,12.50
2023-04-28T09:47:41.429Z,12.70
2023-04-28T09:50:12.910Z,13.10
2023-04-28T09:52:41.396Z,13.20
2023-04-28T09:55:08.994Z,13.40
2023-04-28T09:57:36.860Z,13.60
2023-04-28T10:00:06.760Z,13.70
2023-04-28T10:05:15.576Z,13.30
2023-04-28T10:07:42.695Z,13.10
2023-04-28T10:10:10.547Z,13.20
2023-04-28T10:12:38.804Z,13.00
2023-04-28T10:15:09.622Z,13.10
2023-04-28T10:17:37.361Z,13.20
2023-04-28T10:20:06.422Z,13.20
2023-04-28T10:22:37.026Z,13.20
2023-04-28T10:25:13.135Z,13.20
2023-04-28T10:27:44.712Z,13.20
2023-04-28T10:30:27.290Z,13.10
2023-04-28T10:33:06.755Z,13.20
2023-04-28T10:35:36.280Z,13.40
2023-04-28T10:38:10.571Z,13.50
2023-04-28T10:40:39.270Z,13.60
2023-04-28T10:43:10.634Z,13.70
2023-04-28T10:46:00.344Z,13.80
2023-04-28T10:48:27.109Z,14.00
2023-04-28T10:51:03.452Z,14.30
2023-04-28T10:53:53.280Z,14.30
2023-04-28T10:56:23.545Z,14.00
2023-04-28T10:59:00.353Z,14.00
2023-04-28T11:01:35.133Z,14.10
2023-04-28T11:04:17.055Z,14.10
2023-04-28T11:06:46.163Z,14.40
2023-04-28T11:09:13.936Z,14.60
2023-04-28T11:11:59.701Z,14.50
2023-04-28T11:14:33.015Z,14.20
2023-04-28T11:17:03.731Z,14.20
2023-04-28T11:19:33.273Z,14.40
2023-04-28T11:22:05.303Z,14.70
2023-04-28T11:24:32.283Z,15.10
2023-04-28T11:27:00.680Z,15.50
2023-04-28T11:29:54.365Z,16.10
2023-04-28T11:32:29.914Z,16.40
2023-04-28T11:34:57.381Z,16.30
2023-04-28T11:37:24.340Z,16.00
2023-04-28T11:39:51.729Z,16.00
2023-04-28T11:42:18.935Z,16.10
2023-04-28T11:44:53.631Z,16.20
2023-04-28T11:47:34.475Z,16.20
2023-04-28T11:50:02.688Z,16.30
2023-04-28T11:52:29.456Z,16.20
2023-04-28T11:54:57.776Z,16.30
2023-04-28T11:57:25.445Z,16.20
2023-04-28T11:59:52.457Z,16.10
2023-04-28T12:02:29.749Z,16.20
2023-04-28T12:04:57.231Z,16.30
2023-04-28T12:07:24.622Z,16.50
2023-04-28T12:10:15.678Z,16.50
2023-04-28T12:15:12.844Z,16.00
2023-04-28T12:17:41.742Z,16.00
2023-04-28T12:20:11.753Z,16.10
2023-04-28T12:22:47.411Z,16.50
2023-04-28T12:25:22.336Z,16.60
2023-04-28T12:28:03.440Z,16.70
2023-04-28T12:30:32.242Z,16.90
2023-04-28T12:32:59.117Z,17.00
2023-04-28T12:35:27.601Z,17.60
2023-04-28T12:37:56.953Z,18.20
2023-04-28T12:40:24.467Z,18.50
2023-04-28T12:42:51.614Z,18.40
2023-04-28T12:45:18.549Z,18.40
2023-04-28T12:47:46.098Z,18.40
2023-04-28T12:50:13.059Z,18.40
2023-04-28T12:52:39.867Z,18.30
2023-04-28T12:55:07.325Z,18.80
2023-04-28T12:57:39.102Z,19.30
2023-04-28T13:00:09.500Z,19.40
2023-04-28T13:02:36.934Z,19.20
2023-04-28T13:05:04.252Z,19.60
2023-04-28T13:07:31.876Z,19.40
2023-04-28T13:09:59.551Z,18.50
2023-04-28T13:12:26.815Z,18.20
2023-04-28T13:14:53.832Z,17.80
2023-04-28T13:17:20.738Z,17.90
2023-04-28T13:19:47.843Z,17.30
2023-04-28T13:22:16.052Z,16.90
2023-04-28T13:24:42.954Z,16.40
2023-04-28T13:27:10.219Z,16.10
2023-04-28T13:29:37.704Z,15.80
2023-04-28T13:32:06.119Z,15.50
2023-04-28T13:34:33.503Z,15.50
2023-04-28T13:37:03.383Z,15.40
2023-04-28T13:39:30.309Z,15.40
2023-04-28T13:42:00.206Z,15.50
2023-04-28T13:44:26.927Z,15.80
2023-04-28T13:46:53.818Z,16.10
2023-04-28T13:49:20.653Z,16.50
2023-04-28T13:51:47.502Z,16.90
2023-04-28T13:54:14.287Z,17.50
2023-04-28T13:56:41.540Z,17.40
2023-04-28T13:59:08.335Z,17.40
2023-04-28T14:01:35.729Z,17.60
2023-04-28T14:04:03.268Z,17.50
2023-04-28T14:06:31.130Z,17.10
2023-04-28T14:08:59.152Z,16.90
2023-04-28T14:11:27.234Z,16.70
2023-04-28T14:13:54.063Z,16.70
2023-04-28T14:16:21.262Z,17.00
2023-04-28T14:18:48.578Z,17.10
2023-04-28T14:21:15.352Z,17.10
2023-04-28T14:23:42.177Z,17.10
2023-04-28T14:26:09.080Z,17.10
2023-04-28T14:28:35.906Z,17.10
2023-04-28T14:31:09.227Z,17.00
2023-04-28T14:33:36.765Z,17.00
2023-04-28T14:36:04.117Z,17.30
2023-04-28T14:38:31.161Z,17.60
2023-04-28T14:40:58.292Z,17.70
2023-04-28T14:43:25.915Z,17.60
2023-04-28T14:45:53.416Z,17.70
2023-04-28T14:48:20.423Z,17.80
2023-04-28T14:50:47.916Z,17.90
2023-04-28T14:53:14.698Z,18.00
2023-04-28T14:55:42.301Z,17.80
2023-04-28T14:58:09.236Z,17.70
2023-04-28T15:00:36.321Z,17.70
2023-04-28T15:03:04.043Z,17.60
2023-04-28T15:05:31.446Z,17.60
2023-04-28T15:07:58.706Z,17.60
2023-04-28T15:10:31.713Z,17.80
2023-04-28T15:12:58.797Z,17.80
2023-04-28T15:15:25.825Z,17.90
2023-04-28T15:17:52.911Z,18.10
2023-04-28T15:20:19.887Z,18.10
2023-04-28T15:22:46.725Z,17.80
2023-04-28T15:25:13.861Z,17.80
2023-04-28T15:27:40.720Z,17.90
2023-04-28T15:30:09.568Z,17.80
2023-04-28T15:32:36.666Z,17.70
2023-04-28T15:35:04.121Z,17.70
2023-04-28T15:37:43.090Z,17.80
2023-04-28T15:40:15.960Z,17.90
2023-04-28T15:42:48.697Z,17.70
2023-04-28T15:45:17.051Z,17.60
2023-04-28T15:47:45.225Z,17.70
2023-04-28T15:50:12.640Z,17.70
2023-04-28T15:52:40.827Z,17.40
2023-04-28T15:55:08.540Z,17.30
2023-04-28T15:57:36.698Z,17.20
2023-04-28T16:00:03.984Z,17.20
2023-04-28T16:02:34.917Z,17.60
2023-04-28T16:05:03.014Z,17.70
2023-04-28T16:07:33.155Z,18.00
2023-04-28T16:10:00.658Z,18.10
2023-04-28T16:12:27.366Z,18.00
2023-04-28T16:14:54.262Z,17.80
2023-04-28T16:17:22.146Z,17.60
2023-04-28T16:19:50.014Z,17.50
2023-04-28T16:22:17.090Z,17.50
2023-04-28T16:24:45.139Z,17.70
2023-04-28T16:27:12.771Z,17.90
2023-04-28T16:29:39.851Z,18.00
2023-04-28T16:32:06.754Z,18.00
2023-04-28T16:34:33.937Z,17.60
2023-04-28T16:37:00.943Z,17.30
2023-04-28T16:39:27.739Z,17.10
2023-04-28T16:41:54.666Z,17.00
2023-04-28T16:44:21.430Z,17.00
2023-04-28T16:46:48.824Z,16.90
2023-04-28T16:49:15.935Z,17.00
2023-04-28T16:51:56.076Z,17.10
2023-04-28T16:54:22.892Z,16.90
2023-04-28T16:56:49.833Z,16.90
2023-04-28T16:59:17.424Z,16.80
2023-04-28T17:01:44.909Z,16.80
2023-04-28T17:04:13.664Z,16.80
2023-04-28T17:06:40.900Z,16.90
2023-04-28T17:09:08.042Z,16.80
2023-04-28T17:11:37.701Z,16.60
2023-04-28T17:14:05.135Z,16.50
2023-04-28T17:16:32.942Z,16.50
2023-04-28T17:19:01.160Z,16.40
2023-04-28T17:21:29.211Z,16.30
2023-04-28T17:23:59.318Z,16.30
2023-04-28T17:26:33.274Z,16.30
2023-04-28T17:29:00.373Z,16.30
2023-04-28T17:31:28.339Z,16.30
2023-04-28T17:33:58.003Z,16.30
2023-04-28T17:36:27.187Z,16.30
2023-04-28T17:38:54.821Z,16.40
2023-04-28T17:41:24.885Z,16.30
2023-04-28T17:43:51.827Z,16.30
2023-04-28T17:46:18.900Z,16.30
2023-04-28T17:48:46.057Z,16.20
2023-04-28T17:51:13.193Z,16.10
2023-04-28T17:53:40.066Z,16.00
2023-04-28T17:56:08.198Z,16.00
2023-04-28T17:58:36.262Z,16.00
2023-04-28T18:01:05.023Z,15.70
2023-04-28T18:03:33.681Z,15.30
2023-04-28T18:06:01.425Z,15.00
2023-04-28T18:08:28.454Z,14.60
2023-04-28T18:10:56.309Z,14.40
2023-04-28T18:13:23.137Z,14.20
2023-04-28T18:15:50.094Z,14.00
2023-04-28T18:18:16.972Z,13.90
2023-04-28T18:20:44.140Z,13.90
2023-04-28T18:23:11.170Z,13.80
2023-04-28T18:25:38.119Z,13.80
2023-04-28T18:28:05.828Z,13.70
2023-04-28T18:30:38.422Z,13.50
2023-04-28T18:33:09.610Z,13.50
2023-04-28T18:35:37.178Z,13.40
2023-04-28T18:38:05.206Z,13.30
2023-04-28T18:40:34.481Z,13.20
2023-04-28T18:43:04.128Z,13.20
2023-04-28T18:45:34.300Z,13.10
2023-04-28T18:48:05.468Z,13.10
2023-04-28T18:50:33.053Z,13.00
2023-04-28T18:53:04.247Z,12.90
2023-04-28T18:55:33.484Z,12.90
2023-04-28T18:58:02.222Z,13.00
2023-04-28T19:00:29.733Z,12.90
2023-04-28T19:02:56.949Z,12.90
2023-04-28T19:05:24.003Z,12.90
2023-04-28T19:07:50.907Z,12.90
2023-04-28T19:10:17.719Z,12.80
2023-04-28T19:12:44.484Z,12.80
2023-04-28T19:15:11.485Z,12.80
2023-04-28T19:17:38.303Z,12.90
2023-04-28T19:20:05.768Z,12.90
2023-04-28T19:22:35.822Z,12.90
2023-04-28T19:25:04.304Z,12.90
2023-04-28T19:27:32.709Z,12.90
2023-04-28T19:30:01.206Z,13.00
2023-04-28T19:32:28.684Z,13.00
2023-04-28T19:34:55.645Z,13.00
2023-04-28T19:37:23.604Z,12.90
2023-04-28T19:39:51.239Z,12.90
2023-04-28T19:42:18.505Z,12.80
2023-04-28T19:44:46.604Z,12.80
2023-04-28T19:47:13.544Z,12.80
2023-04-28T19:49:42.148Z,12.70
2023-04-28T19:52:11.816Z,12.70
2023-04-28T19:54:38.701Z,12.70
2023-04-28T19:57:05.613Z,12.60
2023-04-28T19:59:32.589Z,12.60
2023-04-28T20:01:59.679Z,12.50
2023-04-28T20:04:29.078Z,12.50
2023-04-28T20:06:59.034Z,12.50
2023-04-28T20:09:26.163Z,12.50
2023-04-28T20:11:53.118Z,12.50
2023-04-28T20:14:21.673Z,12.50
2023-04-28T20:16:49.300Z,12.50
2023-04-28T20:19:16.426Z,12.50
2023-04-28T20:21:45.759Z,12.50
2023-04-28T20:24:12.512Z,12.40
2023-04-28T20:26:39.409Z,12.40
2023-04-28T20:29:08.417Z,12.40
2023-04-28T20:31:35.660Z,12.40
2023-04-28T20:34:03.792Z,12.40
2023-04-28T20:36:30.563Z,12.40
2023-04-28T20:38:57.353Z,12.40
2023-04-28T20:41:24.463Z,12.40
2023-04-28T20:43:52.386Z,12.40
2023-04-28T20:46:19.269Z,12.40
2023-04-28T20:48:46.021Z,12.30
2023-04-28T20:51:13.068Z,12.30
2023-04-28T20:53:39.865Z,12.20
2023-04-28T20:56:06.737Z,12.20
2023-04-28T20:58:33.513Z,12.30
2023-04-28T21:01:01.022Z,12.20
2023-04-28T21:03:30.598Z,12.20
2023-04-28T21:05:57.489Z,12.20
2023-04-28T21:08:24.226Z,12.40
2023-04-28T21:10:51.078Z,12.20
2023-04-28T21:13:17.858Z,12.20
2023-04-28T21:15:44.780Z,12.20
2023-04-28T21:18:11.972Z,12.30
2023-04-28T21:20:38.780Z,12.30
2023-04-28T21:23:07.435Z,12.20
2023-04-28T21:25:34.213Z,12.20
2023-04-28T21:28:01.883Z,12.20
2023-04-28T21:30:28.924Z,12.20
2023-04-28T21:32:55.972Z,12.10
2023-04-28T21:35:22.838Z,12.10
2023-04-28T21:37:49.592Z,11.90
2023-04-28T21:40:18.901Z,11.80
2023-04-28T21:42:46.695Z,11.80
2023-04-28T21:45:13.479Z,11.80
2023-04-28T21:47:42.148Z,11.70
2023-04-28T21:50:10.453Z,11.60
2023-04-28T21:52:38.490Z,11.60
2023-04-28T21:55:06.181Z,11.50
2023-04-28T21:57:33.084Z,11.40
2023-04-28T21:59:59.842Z,11.40
2023-04-28T22:02:27.029Z,11.50
2023-04-28T22:04:54.208Z,11.60
2023-04-28T22:07:21.140Z,11.60
2023-04-28T22:09:47.963Z,11.70
2023-04-28T22:12:14.739Z,11.70
2023-04-28T22:14:41.844Z,11.70
2023-04-28T22:17:08.824Z,11.80
2023-04-28T22:19:35.974Z,11.70
2023-04-28T22:22:02.729Z,11.70
2023-04-28T22:24:29.587Z,11.60
2023-04-28T22:26:58.038Z,11.50
2023-04-28T22:29:25.816Z,11.40
2023-04-28T22:31:53.375Z,11.40
2023-04-28T22:34:20.111Z,11.40
2023-04-28T22:36:47.454Z,11.50
2023-04-28T22:39:15.537Z,11.40
2023-04-28T22:41:42.433Z,11.40
2023-04-28T22:44:09.198Z,11.30
2023-04-28T22:46:36.483Z,11.20
2023-04-28T22:49:03.286Z,11.10
2023-04-28T22:51:31.783Z,11.00
2023-04-28T22:53:58.676Z,11.00
2023-04-28T22:56:25.694Z,11.00
2023-04-28T22:58:52.485Z,10.90
2023-04-28T23:01:19.393Z,10.90
2023-04-28T23:03:47.287Z,10.90
2023-04-28T23:06:14.229Z,10.90
2023-04-28T23:08:41.013Z,10.90
2023-04-28T23:11:07.895Z,11.00
2023-04-28T23:13:34.813Z,11.10
2023-04-28T23:16:01.582Z,11.10
2023-04-28T23:18:32.654Z,11.10
2023-04-28T23:20:59.737Z,11.10
2023-04-28T23:23:26.641Z,11.00
2023-04-28T23:25:53.708Z,11.00
2023-04-28T23:28:20.433Z,10.90
2023-04-28T23:30:47.184Z,10.80
2023-04-28T23:33:14.206Z,10.70
2023-04-28T23:35:41.904Z,10.60
2023-04-28T23:38:08.778Z,10.60
2023-04-28T23:40:35.562Z,10.50
2023-04-28T23:43:02.659Z,10.50
2023-04-28T23:45:29.640Z,10.60
2023-04-28T23:47:56.525Z,10.60
2023-04-28T23:50:23.889Z,10.70
2023-04-28T23:52:50.836Z,10.80
2023-04-28T23:55:17.724Z,10.90
2023-04-28T23:57:44.505Z,11.10
